Time;durP1;ratioP1;P1;durP2;ratioP2;P2;SDS_P1;SDS_P2;PMS_P1;PMS_P2;Temp;Humidity;BMP_temperature;BMP_pressure;BME280_temperature;BME280_humidity;BME280_pressure;Samples;Min_cycle;Max_cycle;Signal;HPM_P1;HPM_P2
2024/01/02 00:01:58;;;;;;;0.30;0.30;;;;;;;9.43;53.68;101152.41;6062881;23;20386;-92
2024/01/02 00:04:24;;;;;;;0.30;0.30;;;;;;;9.47;53.58;101159.03;6066062;23;20387;-93
2024/01/02 00:06:50;;;;;;;0.30;0.30;;;;;;;9.65;53.07;101151.09;6069957;23;20398;-90
2024/01/02 00:09:17;;;;;;;1.30;0.70;;;;;;;9.49;53.58;101157.91;6073367;23;20374;-93
2024/01/02 00:11:43;;;;;;;0.20;0.20;;;;;;;9.38;53.59;101160.78;6076027;23;20402;-92
2024/01/02 00:14:09;;;;;;;0.27;0.27;;;;;;;9.35;53.92;101153.97;6075560;23;20447;-92
2024/01/02 00:16:37;;;;;;;0.30;0.30;;;;;;;9.12;54.08;101161.50;6069548;23;20410;-93
2024/01/02 00:19:03;;;;;;;0.60;0.60;;;;;;;9.30;54.03;101164.19;6071509;23;20375;-91
2024/01/02 00:21:29;;;;;;;0.20;0.20;;;;;;;9.28;53.80;101173.25;6069634;23;20389;-92
2024/01/02 00:24:18;;;;;;;0.33;0.33;;;;;;;9.40;53.82;101172.06;6079754;23;20414;-94
2024/01/02 00:26:43;;;;;;;0.20;0.20;;;;;;;9.52;53.66;101176.13;6079897;23;21037;-94
2024/01/02 00:29:08;;;;;;;0.38;0.38;;;;;;;9.53;53.14;101174.31;6078998;23;20398;-92
2024/01/02 00:31:34;;;;;;;0.60;0.30;;;;;;;9.60;53.49;101178.03;6080155;23;20363;-94
2024/01/02 00:34:00;;;;;;;0.20;0.20;;;;;;;9.55;52.89;101173.19;6051571;23;20427;-92
2024/01/02 00:36:26;;;;;;;0.10;0.10;;;;;;;9.54;53.05;101168.88;6072847;23;20374;-91
2024/01/02 00:38:51;;;;;;;0.40;0.40;;;;;;;9.57;53.13;101176.50;6065711;23;20371;-91
2024/01/02 00:41:17;;;;;;;0.20;0.20;;;;;;;9.46;52.92;101163.50;6064713;23;20410;-90
2024/01/02 00:43:43;;;;;;;0.30;0.30;;;;;;;9.77;52.67;101163.09;6063372;23;20379;-91
2024/01/02 00:46:09;;;;;;;0.40;0.40;;;;;;;9.76;52.38;101164.09;6064071;23;20379;-90
2024/01/02 00:48:35;;;;;;;0.30;0.30;;;;;;;9.91;52.53;101164.38;6074832;23;20386;-93
2024/01/02 00:51:01;;;;;;;0.10;0.10;;;;;;;10.05;51.98;101158.50;6066629;23;20411;-92
2024/01/02 00:53:27;;;;;;;0.80;0.50;;;;;;;10.09;51.99;101167.81;6066278;23;20448;-93
2024/01/02 00:55:53;;;;;;;0.33;0.33;;;;;;;10.21;52.11;101151.63;6066435;23;20363;-92
2024/01/02 00:58:19;;;;;;;0.20;0.20;;;;;;;10.24;52.23;101154.81;6067777;23;20394;-94
2024/01/02 01:00:45;;;;;;;0.30;0.30;;;;;;;10.33;51.92;101145.97;6043531;23;20371;-94
2024/01/02 01:03:11;;;;;;;0.25;0.25;;;;;;;10.44;52.19;101155.47;6070196;23;20709;-95
2024/01/02 01:05:36;;;;;;;0.30;0.30;;;;;;;10.51;51.45;101150.34;6046284;23;20378;-93
2024/01/02 01:08:03;;;;;;;1.30;0.40;;;;;;;10.57;51.32;101164.78;6071829;23;20360;-91
2024/01/02 01:10:40;;;;;;;0.15;0.15;;;;;;;10.57;51.52;101152.38;6062577;23;20436;-92
2024/01/02 01:13:06;;;;;;;0.20;0.20;;;;;;;10.71;51.67;101151.78;6091554;23;20366;-90
2024/01/02 01:15:31;;;;;;;0.30;0.30;;;;;;;10.68;51.58;101154.72;6083879;23;20391;-92
2024/01/02 01:17:57;;;;;;;0.10;0.10;;;;;;;10.57;51.32;101147.06;6071450;23;20375;-94
2024/01/02 01:20:23;;;;;;;0.20;0.20;;;;;;;10.51;51.47;101143.25;6072121;23;20374;-91
2024/01/02 01:22:49;;;;;;;0.40;0.40;;;;;;;10.56;51.89;101145.41;6075316;23;20701;-93
2024/01/02 01:25:15;;;;;;;0.57;0.57;;;;;;;10.57;51.61;101147.06;6072421;23;20391;-90
2024/01/02 01:27:40;;;;;;;0.20;0.20;;;;;;;10.51;51.57;101148.53;6080908;23;20426;-94
2024/01/02 01:30:07;;;;;;;0.22;0.22;;;;;;;10.35;51.74;101148.44;6092491;23;20378;-92
2024/01/02 01:32:32;;;;;;;0.35;0.35;;;;;;;10.37;52.04;101150.94;6092580;23;20374;-95
2024/01/02 01:48:56;;;;;;;0.40;0.40;;;;;;;10.17;51.67;101129.94;5962607;23;20372;-95
2024/01/02 01:51:24;;;;;;;0.38;0.38;;;;;;;10.15;52.07;101129.25;6045611;23;20435;-95
2024/01/02 01:53:50;;;;;;;0.45;0.45;;;;;;;10.19;51.92;101127.13;6020692;23;20416;-95
2024/01/02 01:56:17;;;;;;;0.17;0.17;;;;;;;10.22;51.96;101130.28;6043546;23;20372;-90
2024/01/02 01:58:54;;;;;;;0.20;0.20;;;;;;;10.17;52.09;101124.63;6047669;23;20371;-96
2024/01/02 02:01:26;;;;;;;0.40;0.40;;;;;;;10.25;51.54;101118.56;6072588;23;20388;-96
2024/01/02 02:03:52;;;;;;;0.90;0.40;;;;;;;10.24;51.79;101111.59;6071960;23;20462;-93
2024/01/02 02:06:23;;;;;;;0.20;0.20;;;;;;;10.22;51.63;101101.16;6046500;23;20363;-96
2024/01/02 02:08:50;;;;;;;0.30;0.30;;;;;;;10.28;51.13;101100.53;6044846;23;20360;-92
2024/01/02 02:11:20;;;;;;;0.70;0.32;;;;;;;10.25;51.47;101105.31;6043197;23;20869;-93
2024/01/02 02:13:47;;;;;;;0.10;0.10;;;;;;;10.23;51.01;101102.81;6042969;23;20712;-94
2024/01/02 02:16:16;;;;;;;0.90;0.60;;;;;;;10.18;51.17;101101.63;6040952;23;20778;-91
2024/01/02 02:18:43;;;;;;;1.00;0.30;;;;;;;10.08;51.29;101099.09;6040969;23;20442;-89
2024/01/02 02:21:09;;;;;;;0.20;0.20;;;;;;;10.10;51.22;101097.97;6042169;23;20364;-91
2024/01/02 02:23:34;;;;;;;1.20;0.90;;;;;;;10.08;50.99;101099.09;6065371;23;20374;-91
2024/01/02 02:26:00;;;;;;;0.50;0.50;;;;;;;10.06;51.28;101101.06;6066327;23;20450;-90
2024/01/02 02:28:28;;;;;;;0.20;0.20;;;;;;;10.05;51.64;101094.13;6065393;23;20784;-90
2024/01/02 02:30:57;;;;;;;0.30;0.30;;;;;;;10.01;51.36;101095.41;6041041;23;20379;-89
2024/01/02 02:33:23;;;;;;;0.30;0.30;;;;;;;9.93;51.34;101094.38;6066191;23;20367;-91
2024/01/02 02:35:48;;;;;;;0.40;0.40;;;;;;;9.84;51.93;101099.78;6064631;23;20936;-92
2024/01/02 02:38:20;;;;;;;0.20;0.20;;;;;;;9.91;51.46;101106.13;6065434;23;20375;-93
2024/01/02 02:41:16;;;;;;;;;;;;;;;;;;;;;
2024/01/02 02:46:32;;;;;;;0.40;0.40;;;;;;;9.95;51.27;101102.16;6064891;23;20396;-95
2024/01/02 02:49:12;;;;;;;0.20;0.20;;;;;;;10.00;51.02;101099.88;6024833;23;20380;-93
2024/01/02 02:55:56;;;;;;;1.15;0.80;;;;;;;9.97;50.81;101097.53;5980090;24;20773;-93
2024/01/02 02:58:32;;;;;;;0.28;0.28;;;;;;;10.17;51.09;101108.72;5964669;23;20437;-93
2024/01/02 03:00:59;;;;;;;0.30;0.30;;;;;;;10.18;50.82;101114.88;6037262;23;20380;-90
2024/01/02 03:03:28;;;;;;;0.10;0.10;;;;;;;10.08;50.67;101099.94;6034111;23;20384;-92
2024/01/02 03:05:56;;;;;;;0.30;0.30;;;;;;;10.10;50.84;101103.25;6011369;23;20388;-93
2024/01/02 03:08:24;;;;;;;0.50;0.28;;;;;;;10.06;50.58;101109.00;6036209;23;20376;-94
2024/01/02 03:11:02;;;;;;;0.25;0.25;;;;;;;10.04;51.19;101118.94;6037623;23;20402;-96
2024/01/02 03:13:30;;;;;;;0.20;0.20;;;;;;;10.10;50.72;101113.00;6014393;23;20693;-94
2024/01/02 03:15:56;;;;;;;0.20;0.20;;;;;;;10.08;50.97;101105.22;6047631;23;20380;-93
2024/01/02 03:18:30;;;;;;;0.10;0.10;;;;;;;10.22;50.33;101095.03;6064697;23;20372;-94
2024/01/02 03:20:59;;;;;;;0.27;0.27;;;;;;;10.36;50.15;101097.09;6030778;23;20444;-95
2024/01/02 03:23:24;;;;;;;0.10;0.10;;;;;;;10.39;50.58;101090.66;6043473;23;20392;-94
2024/01/02 03:25:50;;;;;;;0.30;0.30;;;;;;;10.54;50.14;101094.38;6041015;23;20365;-94
2024/01/02 03:28:24;;;;;;;0.30;0.30;;;;;;;10.47;49.94;101093.34;6041618;23;20361;-90
2024/01/02 03:31:03;;;;;;;;;;;;;;;;;;;;;
2024/01/02 03:33:36;;;;;;;0.28;0.28;;;;;;;10.45;49.92;101092.69;6053272;23;20357;-94
2024/01/02 03:36:34;;;;;;;0.20;0.20;;;;;;;10.46;50.57;101104.91;6057587;23;20384;-94
2024/01/02 03:39:00;;;;;;;0.47;0.47;;;;;;;10.39;49.93;101096.81;6083367;23;20401;-94
2024/01/02 03:44:06;;;;;;;0.20;0.20;;;;;;;10.34;50.24;101101.75;6104561;23;20400;-91
2024/01/02 03:46:32;;;;;;;0.10;0.10;;;;;;;10.42;50.38;101106.25;6128753;23;20422;-92
2024/01/02 03:49:03;;;;;;;0.30;0.30;;;;;;;10.38;50.40;101095.13;6125951;23;20768;-95
2024/01/02 03:51:36;;;;;;;0.20;0.20;;;;;;;10.52;50.27;101105.13;6112038;23;20372;-96
2024/01/02 03:54:01;;;;;;;0.20;0.20;;;;;;;10.45;50.22;101100.63;6103246;23;20444;-94
2024/01/02 03:56:27;;;;;;;0.20;0.20;;;;;;;10.29;50.20;101114.59;6097320;23;20439;-92
2024/01/02 03:58:52;;;;;;;0.20;0.20;;;;;;;10.32;50.20;101109.03;6096869;23;20428;-93
2024/01/02 04:01:18;;;;;;;0.15;0.15;;;;;;;10.43;50.12;101108.72;6099041;23;20392;-94
2024/01/02 04:04:09;;;;;;;0.10;0.10;;;;;;;10.48;49.89;101111.75;6106515;23;20408;-93
2024/01/02 04:06:39;;;;;;;0.20;0.20;;;;;;;10.46;49.51;101104.91;6116129;23;20364;-93
2024/01/02 04:09:19;;;;;;;0.20;0.20;;;;;;;10.38;50.27;101118.16;6070179;23;20372;-93
2024/01/02 04:11:49;;;;;;;0.20;0.20;;;;;;;10.18;50.06;101118.34;6110575;23;20373;-93
2024/01/02 04:16:51;;;;;;;0.13;0.13;;;;;;;10.40;49.75;101105.56;6037631;23;20532;-94
2024/01/02 04:19:17;;;;;;;0.32;0.32;;;;;;;10.43;49.73;101108.72;6073119;23;20447;-93
2024/01/02 04:21:47;;;;;;;0.20;0.20;;;;;;;10.56;50.14;101113.59;6071911;23;20379;-94
2024/01/02 04:24:16;;;;;;;0.10;0.10;;;;;;;10.67;50.01;101109.81;6069264;23;20367;-94
2024/01/02 04:44:49;;;;;;;0.80;0.80;;;;;;;10.53;49.60;101132.44;6032748;23;20403;-93
2024/01/02 04:47:46;;;;;;;0.40;0.40;;;;;;;10.43;49.61;101127.28;6088488;23;20397;-95
2024/01/02 04:50:45;;;;;;;0.20;0.20;;;;;;;10.27;49.56;101127.19;6099198;23;20470;-92
2024/01/02 04:53:10;;;;;;;0.20;0.20;;;;;;;10.28;49.45;101116.44;6086715;23;20369;-94
2024/01/02 04:55:36;;;;;;;0.10;0.10;;;;;;;10.29;49.27;101111.94;6081024;23;20405;-94
2024/01/02 04:58:04;;;;;;;0.20;0.20;;;;;;;10.35;49.47;101129.88;6105267;23;20374;-93
2024/01/02 05:00:30;;;;;;;0.10;0.10;;;;;;;10.22;49.23;101127.63;6126750;23;20369;-94
2024/01/02 05:02:58;;;;;;;0.40;0.40;;;;;;;10.24;49.60;101124.84;6126332;23;20876;-92
2024/01/02 05:06:28;;;;;;;;;;;;;;;;;;;;;
2024/01/02 05:15:25;;;;;;;0.10;0.10;;;;;;;10.27;49.30;101106.81;6021081;23;20418;31
2024/01/02 05:17:50;;;;;;;0.10;0.10;;;;;;;10.45;49.48;101106.75;6108550;23;20740;-94
2024/01/02 05:20:22;;;;;;;0.10;0.10;;;;;;;10.37;49.07;101103.22;6105037;23;20902;-95
2024/01/02 05:22:49;;;;;;;0.40;0.40;;;;;;;10.38;48.88;101115.50;6060920;23;20762;-92
2024/01/02 05:25:16;;;;;;;1.40;0.38;;;;;;;10.22;49.24;101105.63;6123801;23;20387;-95
2024/01/02 05:27:41;;;;;;;0.40;0.40;;;;;;;10.26;49.25;101099.88;6118841;23;20372;-94
2024/01/02 05:30:08;;;;;;;0.15;0.15;;;;;;;10.30;49.00;101108.31;6132309;23;20692;-92
2024/01/02 05:32:35;;;;;;;0.10;0.10;;;;;;;10.14;49.44;101101.13;6132578;23;20412;-94
2024/01/02 05:35:01;;;;;;;0.10;0.10;;;;;;;10.21;49.09;101106.59;6131945;23;20360;-94
2024/01/02 05:37:27;;;;;;;0.80;0.40;;;;;;;10.35;48.70;101106.03;6131240;23;20412;-94
2024/01/02 05:39:55;;;;;;;0.10;0.10;;;;;;;10.43;49.29;101103.44;6130822;23;20360;-94
2024/01/02 05:42:22;;;;;;;0.10;0.10;;;;;;;10.60;48.85;101099.00;6146554;23;20440;-94
2024/01/02 05:44:48;;;;;;;0.10;0.10;;;;;;;10.54;48.50;101098.84;6128011;23;20360;-93
2024/01/02 05:47:15;;;;;;;0.20;0.20;;;;;;;10.45;48.60;101106.75;6146441;23;20550;-91
2024/01/02 05:49:43;;;;;;;0.15;0.15;;;;;;;10.48;48.67;101102.97;6133653;23;20378;-92
2024/01/02 05:52:09;;;;;;;0.40;0.40;;;;;;;10.51;48.67;101105.28;6129451;23;20442;-93
2024/01/02 05:54:35;;;;;;;0.20;0.20;;;;;;;10.47;48.39;101107.41;6105846;23;20740;-93
2024/01/02 05:57:01;;;;;;;0.20;0.20;;;;;;;10.35;48.38;101107.88;6106341;23;20379;-91
2024/01/02 05:59:46;;;;;;;0.20;0.20;;;;;;;10.40;48.75;101110.88;6131220;23;20447;-92
2024/01/02 06:02:17;;;;;;;0.30;0.30;;;;;;;10.30;48.36;101114.44;6106591;23;20375;-93
2024/01/02 06:04:49;;;;;;;0.22;0.22;;;;;;;10.45;48.86;101129.78;6129230;23;20363;-93
2024/01/02 06:07:15;;;;;;;0.95;0.50;;;;;;;10.51;48.49;101129.13;6136426;23;20458;-94
2024/01/02 06:09:40;;;;;;;0.38;0.38;;;;;;;10.37;48.60;101127.06;6110111;23;20356;-95
2024/01/02 06:12:09;;;;;;;0.10;0.10;;;;;;;10.33;48.82;101127.41;6107380;23;20443;-95
2024/01/02 06:14:37;;;;;;;0.20;0.20;;;;;;;10.39;48.90;101125.09;6135339;23;20360;-95
2024/01/02 06:17:09;;;;;;;0.60;0.60;;;;;;;10.45;48.57;101135.09;6133056;23;20348;-94
2024/01/02 06:19:53;;;;;;;0.20;0.20;;;;;;;10.54;48.33;101130.66;6108798;23;20375;-94
2024/01/02 06:22:25;;;;;;;0.30;0.30;;;;;;;10.41;48.44;101129.28;6072572;23;20414;-94
2024/01/02 06:24:50;;;;;;;0.10;0.10;;;;;;;10.47;48.19;101141.06;6071494;23;20367;-93
2024/01/02 06:27:17;;;;;;;0.10;0.10;;;;;;;10.40;48.51;101140.84;6048631;23;20382;-92
2024/01/02 06:29:46;;;;;;;0.13;0.13;;;;;;;10.31;48.60;101144.44;6048281;23;20412;-93
2024/01/02 06:32:15;;;;;;;0.17;0.17;;;;;;;10.41;48.29;101158.41;6026513;23;20380;-93
2024/01/02 06:34:41;;;;;;;0.10;0.10;;;;;;;10.56;48.29;101156.00;6050097;23;20503;-93
2024/01/02 06:37:07;;;;;;;0.10;0.10;;;;;;;10.53;47.88;101156.31;6052013;23;20376;-92
2024/01/02 06:39:34;;;;;;;0.10;0.10;;;;;;;10.48;48.61;101155.97;6074601;23;20370;-93
2024/01/02 06:42:03;;;;;;;0.20;0.20;;;;;;;10.51;47.95;101167.09;6045421;23;20383;-92
2024/01/02 06:44:33;;;;;;;0.50;0.50;;;;;;;10.60;48.31;101173.25;6074207;23;20368;-89
2024/01/02 06:47:01;;;;;;;0.10;0.10;;;;;;;10.59;47.88;101170.75;6083213;23;20453;-91
2024/01/02 06:49:31;;;;;;;0.30;0.30;;;;;;;10.64;47.99;101173.75;6069421;23;20911;-89
2024/01/02 06:52:02;;;;;;;0.10;0.10;;;;;;;10.63;47.82;101167.63;6043596;23;20447;-90
2024/01/02 06:54:30;;;;;;;0.70;0.70;;;;;;;10.67;48.08;101162.84;6129150;23;20416;-91
2024/01/02 06:56:59;;;;;;;0.10;0.10;;;;;;;10.66;47.77;101169.97;6078836;23;20367;-89
2024/01/02 06:59:27;;;;;;;0.30;0.20;;;;;;;10.69;47.95;101168.81;6102924;23;20465;-89
2024/01/02 07:01:53;;;;;;;1.65;1.55;;;;;;;10.67;47.92;101161.00;6128198;23;20377;-89
2024/01/02 07:04:18;;;;;;;0.30;0.20;;;;;;;10.69;47.64;101163.50;6105848;23;20391;-90
2024/01/02 07:06:44;;;;;;;0.50;0.50;;;;;;;10.84;47.49;101174.31;6130333;23;20378;-89
2024/01/02 07:09:10;;;;;;;0.38;0.38;;;;;;;10.86;47.52;101173.19;6130536;23;20471;-91
2024/01/02 07:11:36;;;;;;;2.20;0.55;;;;;;;10.85;47.82;101174.16;6131328;23;20386;-91
2024/01/02 07:14:01;;;;;;;0.40;0.40;;;;;;;10.91;47.08;101172.69;6103960;23;20371;-92
2024/01/02 07:16:32;;;;;;;0.30;0.30;;;;;;;10.89;47.39;101177.34;6107436;23;20368;-91
2024/01/02 07:19:01;;;;;;;0.68;0.68;;;;;;;10.96;46.97;101175.69;6135064;23;20407;-92
2024/01/02 07:21:27;;;;;;;0.40;0.40;;;;;;;10.97;46.64;101171.25;6110727;23;20364;-90
2024/01/02 07:23:53;;;;;;;2.40;0.80;;;;;;;10.93;46.93;101168.09;6143550;23;20387;-91
2024/01/02 07:26:19;;;;;;;0.30;0.30;;;;;;;10.98;46.60;101175.53;6124519;23;20406;-91
2024/01/02 07:28:48;;;;;;;0.80;0.50;;;;;;;11.03;46.52;101181.19;6149516;23;20392;-93
2024/01/02 07:31:19;;;;;;;0.55;0.55;;;;;;;10.97;46.25;101182.69;6119390;23;20365;-91
2024/01/02 07:33:55;;;;;;;0.63;0.63;;;;;;;10.92;46.42;101192.94;6088633;23;20781;-92
2024/01/02 07:36:20;;;;;;;0.30;0.30;;;;;;;10.73;46.55;101198.50;6108373;23;20414;-92
2024/01/02 07:38:46;;;;;;;0.47;0.47;;;;;;;10.80;46.43;101191.56;6105939;23;20370;-92
2024/01/02 07:41:12;;;;;;;1.63;0.83;;;;;;;10.79;46.42;101195.22;6112902;23;20373;-90
2024/01/02 07:43:50;;;;;;;0.50;0.50;;;;;;;10.76;46.24;101198.19;6116031;23;20346;-89
2024/01/02 07:46:16;;;;;;;0.20;0.20;;;;;;;10.63;46.78;101195.97;6119094;23;20365;-89
2024/01/02 07:48:42;;;;;;;1.00;0.60;;;;;;;10.67;46.51;101198.13;6121334;23;20408;-91
2024/01/02 07:51:08;;;;;;;0.30;0.30;;;;;;;10.60;46.55;101201.59;6121338;23;20369;-90
2024/01/02 07:53:34;;;;;;;0.43;0.43;;;;;;;10.70;46.50;101200.47;6119563;23;20362;-90
2024/01/02 07:56:07;;;;;;;0.30;0.30;;;;;;;10.77;46.45;101199.81;6119825;23;20376;-93
2024/01/02 07:58:39;;;;;;;1.40;1.33;;;;;;;10.63;46.08;101196.78;6097220;23;20397;-91
2024/01/02 08:01:07;;;;;;;0.40;0.40;;;;;;;10.59;45.91;101194.59;6119731;23;20369;-91
2024/01/02 08:03:36;;;;;;;0.40;0.40;;;;;;;10.68;46.78;101206.94;6149311;23;20410;-91
2024/01/02 08:06:02;;;;;;;0.10;0.10;;;;;;;10.69;46.21;101201.44;6146128;23;20371;-91
2024/01/02 08:08:32;;;;;;;0.98;0.75;;;;;;;10.87;46.75;101206.66;6136174;23;20355;-92
2024/01/02 08:10:57;;;;;;;0.25;0.25;;;;;;;10.98;46.36;101215.34;6137336;23;20724;-92
2024/01/02 08:13:28;;;;;;;0.15;0.15;;;;;;;10.88;45.92;101211.00;6135136;23;20863;-91
2024/01/02 08:15:57;;;;;;;0.38;0.38;;;;;;;10.60;45.98;101212.19;6137771;23;20371;-91
2024/01/02 08:18:40;;;;;;;0.17;0.17;;;;;;;10.61;46.06;101219.16;6113194;23;20364;-90
2024/01/02 08:21:08;;;;;;;0.30;0.30;;;;;;;10.93;45.80;101222.94;6135980;23;20438;-91
2024/01/02 08:23:36;;;;;;;1.00;0.90;;;;;;;11.03;45.95;101219.16;6107058;23;20383;-91
2024/01/02 08:26:12;;;;;;;0.60;0.60;;;;;;;11.00;45.51;101232.78;6130838;23;20910;-91
2024/01/02 08:28:39;;;;;;;0.20;0.20;;;;;;;11.01;45.25;101237.06;6083077;23;20360;-91
2024/01/02 08:31:05;;;;;;;0.20;0.20;;;;;;;11.01;44.88;101234.41;6131340;23;20368;-91
2024/01/02 08:33:47;;;;;;;0.10;0.10;;;;;;;11.09;44.73;101230.94;6136990;23;20372;-91
2024/01/02 08:36:12;;;;;;;0.28;0.28;;;;;;;11.18;43.86;101232.66;6116826;23;20376;-92
2024/01/02 08:38:40;;;;;;;0.10;0.10;;;;;;;11.31;43.98;101234.84;6137418;23;20377;-91
2024/01/02 08:41:30;;;;;;;0.30;0.30;;;;;;;11.50;44.00;101232.91;6138774;23;20443;-90
2024/01/02 08:43:55;;;;;;;1.30;1.20;;;;;;;11.45;43.64;101230.72;6106483;23;20363;-89
2024/01/02 08:46:21;;;;;;;0.40;0.30;;;;;;;11.51;43.75;101231.91;6129703;23;20368;-90
2024/01/02 08:48:49;;;;;;;0.10;0.10;;;;;;;11.64;43.04;101238.38;6107686;23;20368;-91
2024/01/02 08:51:24;;;;;;;0.10;0.10;;;;;;;11.64;43.10;101211.00;6109444;23;20371;-90
2024/01/02 08:53:53;;;;;;;0.30;0.20;;;;;;;11.79;42.68;101217.34;6109140;23;20372;-91
2024/01/02 08:56:27;;;;;;;0.10;0.10;;;;;;;11.78;42.66;101217.50;6111698;23;20371;-91
2024/01/02 08:58:55;;;;;;;0.10;0.10;;;;;;;11.71;41.88;101221.81;6136786;23;20374;-91
2024/01/02 09:01:28;;;;;;;0.10;0.10;;;;;;;11.76;42.21;101212.34;6135664;23;20364;-90
2024/01/02 09:03:54;;;;;;;0.10;0.10;;;;;;;11.61;40.96;101204.22;6086961;23;20375;-91
2024/01/02 09:06:31;;;;;;;;;;;;;;;;;;;;;
2024/01/02 09:09:00;;;;;;;0.15;0.15;;;;;;;11.48;40.88;101206.50;6139708;23;20348;-91
2024/01/02 09:11:29;;;;;;;0.20;0.20;;;;;;;11.65;41.09;101205.53;6141557;23;20364;-92
2024/01/02 09:13:54;;;;;;;0.20;0.20;;;;;;;11.83;40.84;101193.94;6132286;23;20375;-91
2024/01/02 09:16:21;;;;;;;0.10;0.10;;;;;;;11.55;39.57;101186.28;6107798;23;20368;-88
2024/01/02 09:18:50;;;;;;;0.88;0.40;;;;;;;11.76;40.13;101185.78;6134532;23;20368;-91
2024/01/02 09:21:56;;;;;;;0.20;0.20;;;;;;;11.67;39.84;101184.13;6111218;23;20368;-91
2024/01/02 09:24:21;;;;;;;0.20;0.20;;;;;;;11.64;39.67;101169.34;6107697;23;20367;-89
2024/01/02 09:26:51;;;;;;;0.40;0.40;;;;;;;11.61;39.10;101166.19;6125244;23;20443;-88
2024/01/02 09:29:21;;;;;;;0.20;0.20;;;;;;;11.96;39.70;101146.47;6128900;23;20460;-89
2024/01/02 09:31:47;;;;;;;0.60;0.60;;;;;;;11.98;38.90;101148.94;6132867;23;20427;-89
2024/01/02 09:34:13;;;;;;;0.10;0.10;;;;;;;12.00;38.50;101150.44;6103791;23;20371;-85
2024/01/02 09:36:39;;;;;;;0.10;0.10;;;;;;;12.08;38.92;101143.44;6110989;23;20376;-90
2024/01/02 09:39:06;;;;;;;0.10;0.10;;;;;;;12.29;38.42;101148.22;6143618;23;20378;-85
2024/01/02 09:41:42;;;;;;;0.23;0.23;;;;;;;12.40;38.39;101140.69;6139882;23;20848;-91
2024/01/02 09:44:46;;;;;;;0.17;0.17;;;;;;;12.38;38.54;101142.69;6133075;23;20366;-93
2024/01/02 09:47:49;;;;;;;0.40;0.40;;;;;;;12.46;37.81;101138.34;6131667;23;20376;-91
2024/01/02 09:55:48;;;;;;;0.20;0.20;;;;;;;12.85;37.43;101145.50;6139310;23;20430;-93
2024/01/02 09:58:29;;;;;;;0.20;0.20;;;;;;;12.62;37.38;101139.13;6124223;23;20395;-92
2024/01/02 10:01:19;;;;;;;0.70;0.40;;;;;;;12.88;37.27;101137.19;6125609;23;20368;-92
2024/01/02 10:04:09;;;;;;;0.10;0.10;;;;;;;13.09;37.45;101133.88;6114316;23;20392;-94
2024/01/02 10:07:08;;;;;;;0.10;0.10;;;;;;;12.92;36.57;101139.31;6118766;23;20355;-90
2024/01/02 10:09:53;;;;;;;0.30;0.30;;;;;;;12.66;36.59;101128.97;6133992;23;20364;-92
2024/01/02 10:12:35;;;;;;;0.40;0.40;;;;;;;13.01;36.51;101127.59;6111280;23;20395;-94
2024/01/02 10:15:38;;;;;;;0.57;0.32;;;;;;;13.02;35.78;101117.81;6116988;23;20384;-92
2024/01/02 10:18:40;;;;;;;2.78;2.58;;;;;;;13.02;36.10;101117.81;6112444;23;20379;-94
2024/01/02 10:21:48;;;;;;;1.10;1.10;;;;;;;12.93;36.52;101109.03;6117026;23;20446;-96
2024/01/02 10:24:57;;;;;;;0.10;0.10;;;;;;;12.92;35.44;101109.22;6120550;23;20378;-96
2024/01/02 10:27:49;;;;;;;0.10;0.10;;;;;;;13.08;34.96;101108.28;6117030;23;20372;-94
2024/01/02 10:30:58;;;;;;;0.10;0.10;;;;;;;13.14;35.89;101102.25;6068741;23;20403;-94
2024/01/02 10:34:12;;;;;;;4.03;1.80;;;;;;;13.62;36.39;101092.22;6144232;23;20364;-94
2024/01/02 10:37:01;;;;;;;0.10;0.10;;;;;;;13.49;35.40;101084.88;6133605;23;20367;-92
2024/01/02 10:39:47;;;;;;;0.55;0.55;;;;;;;13.68;35.68;101099.50;6132454;23;20367;-93
2024/01/02 10:42:34;;;;;;;0.10;0.10;;;;;;;13.56;34.86;101096.44;6141222;23;20376;-92
2024/01/02 10:45:26;;;;;;;0.25;0.25;;;;;;;13.24;35.11;101092.19;6047266;23;20464;-93
2024/01/02 10:54:05;;;;;;;0.50;0.30;;;;;;;13.38;34.86;101086.13;6080785;23;20395;-91
2024/01/02 10:57:03;;;;;;;0.10;0.10;;;;;;;13.47;34.51;101073.56;6070897;23;20398;-92
2024/01/02 10:59:33;;;;;;;0.20;0.20;;;;;;;13.60;34.99;101074.78;6062531;23;20386;-92
2024/01/02 11:02:22;;;;;;;0.40;0.40;;;;;;;13.71;35.28;101074.34;6066296;23;22410;-90
2024/01/02 11:05:07;;;;;;;0.10;0.10;;;;;;;13.40;34.30;101051.31;6090752;23;20351;-88
2024/01/02 11:07:36;;;;;;;0.10;0.10;;;;;;;13.71;34.68;101056.50;6085910;23;20396;-90
2024/01/02 11:10:09;;;;;;;0.90;0.60;;;;;;;13.35;34.36;101051.84;6061640;23;20454;-90
2024/01/02 11:13:06;;;;;;;0.13;0.13;;;;;;;13.41;34.64;101052.97;6086960;23;20364;-91
2024/01/02 11:15:37;;;;;;;0.10;0.10;;;;;;;13.57;34.06;101055.47;6086373;23;20447;-95
2024/01/02 11:18:07;;;;;;;0.15;0.15;;;;;;;13.54;33.74;101060.34;6058655;23;20399;-93
2024/01/02 11:23:07;;;;;;;1.50;0.40;;;;;;;13.91;33.88;101045.31;6134361;23;20403;-93
2024/01/02 11:25:44;;;;;;;0.17;0.17;;;;;;;13.99;33.97;101045.25;6109859;23;20376;-94
2024/01/02 11:28:15;;;;;;;0.50;0.30;;;;;;;13.80;33.66;101033.28;6135941;23;20573;-94
2024/01/02 11:30:49;;;;;;;0.43;0.43;;;;;;;13.90;33.85;101033.00;6115622;23;20360;-94
2024/01/02 11:33:31;;;;;;;0.30;0.30;;;;;;;14.08;33.60;101041.47;6141709;23;20431;-92
2024/01/02 11:36:46;;;;;;;0.10;0.10;;;;;;;13.98;33.29;101034.75;6113901;23;20442;-93
2024/01/02 11:39:14;;;;;;;0.60;0.40;;;;;;;14.01;33.63;101034.38;6110152;23;20373;-93
2024/01/02 11:41:57;;;;;;;0.30;0.30;;;;;;;13.67;33.05;101027.78;6151477;23;20427;-92
2024/01/02 11:47:13;;;;;;;0.10;0.10;;;;;;;14.13;33.52;101019.56;6087379;23;20498;-92
2024/01/02 11:49:52;;;;;;;0.30;0.30;;;;;;;14.20;33.04;101020.47;6083249;23;20387;-92
2024/01/02 11:52:22;;;;;;;0.20;0.20;;;;;;;14.30;33.66;101014.88;6102354;23;20413;-92
2024/01/02 11:55:10;;;;;;;0.20;0.20;;;;;;;14.12;33.57;101016.06;6093560;23;20455;-92
2024/01/02 12:05:46;;;;;;;0.90;0.60;;;;;;;14.35;32.59;101009.78;6090935;23;20394;-91
2024/01/02 12:08:17;;;;;;;1.58;0.90;;;;;;;14.11;32.53;101001.09;6088928;23;20410;-93
2024/01/02 12:11:06;;;;;;;0.40;0.40;;;;;;;14.25;32.90;100987.94;6070983;23;21508;-93
2024/01/02 12:14:04;;;;;;;1.33;0.73;;;;;;;14.26;32.06;100995.75;6094018;23;20387;-93
2024/01/02 12:16:38;;;;;;;0.40;0.40;;;;;;;14.32;32.27;100989.66;6063243;23;20430;-93
2024/01/02 12:19:06;;;;;;;0.10;0.10;;;;;;;14.55;32.53;100988.69;6034149;23;20412;-91
2024/01/02 12:21:45;;;;;;;0.20;0.20;;;;;;;14.72;32.74;100991.94;6085433;23;20398;-94
2024/01/02 12:24:16;;;;;;;0.32;0.32;;;;;;;14.48;32.07;100985.94;6082986;23;20370;-94
2024/01/02 12:26:54;;;;;;;0.20;0.20;;;;;;;14.48;31.71;100993.13;6088131;23;20355;-93
2024/01/02 12:30:03;;;;;;;0.52;0.52;;;;;;;14.70;31.18;100986.78;6064491;23;20607;-93
2024/01/02 12:32:52;;;;;;;0.10;0.10;;;;;;;14.53;29.40;100988.00;6069427;23;20377;-92
2024/01/02 12:35:28;;;;;;;0.13;0.13;;;;;;;14.59;29.61;100984.63;6071148;23;20407;-94
2024/01/02 12:38:12;;;;;;;0.10;0.10;;;;;;;14.51;28.71;100976.72;6060794;23;20376;-95
2024/01/02 12:46:19;;;;;;;0.30;0.30;;;;;;;14.49;29.05;100973.41;6086123;23;20434;-94
2024/01/02 12:48:58;;;;;;;0.10;0.10;;;;;;;14.32;28.93;100975.50;6060606;23;20364;-93
2024/01/02 12:51:32;;;;;;;0.08;0.08;;;;;;;14.37;28.72;100967.75;6062936;23;20367;-95
2024/01/02 12:54:11;;;;;;;0.10;0.10;;;;;;;14.51;28.99;100976.72;6108572;23;20452;-94
2024/01/02 12:56:46;;;;;;;0.15;0.15;;;;;;;14.57;28.81;100973.31;6035706;23;21057;-95
2024/01/02 12:59:16;;;;;;;0.45;0.45;;;;;;;14.45;28.97;100978.28;6011635;23;20364;-93
2024/01/02 13:01:49;;;;;;;0.20;0.20;;;;;;;14.17;28.90;100970.22;6008559;23;20440;-93
2024/01/02 13:04:16;;;;;;;0.20;0.20;;;;;;;14.32;28.93;100978.97;6052806;23;20372;-94
2024/01/02 13:06:43;;;;;;;0.20;0.20;;;;;;;14.07;28.73;100970.50;6052333;23;20373;-93
2024/01/02 13:09:15;;;;;;;0.17;0.17;;;;;;;14.26;28.73;100970.91;6025502;23;20463;-95
2024/01/02 13:11:42;;;;;;;0.10;0.10;;;;;;;14.54;28.93;100974.50;6026498;23;20924;-92
2024/01/02 13:14:09;;;;;;;0.40;0.20;;;;;;;14.74;28.92;100971.22;6026515;23;20446;-93
2024/01/02 13:16:41;;;;;;;0.10;0.10;;;;;;;14.74;29.32;100975.75;6025082;23;20365;-94
2024/01/02 13:19:18;;;;;;;0.10;0.10;;;;;;;14.84;29.40;100981.59;6024780;23;20407;-91